createdAt,value
2022-09-14T00:00:40.153Z,0
2022-09-14T00:01:54.964Z,0
2022-09-14T00:02:59.256Z,0
2022-09-14T00:04:34.437Z,0
2022-09-14T00:05:37.478Z,0
2022-09-14T00:06:40.455Z,0
2022-09-14T00:08:15.313Z,0
2022-09-14T00:09:18.343Z,0
2022-09-14T00:10:21.259Z,0
2022-09-14T00:11:55.872Z,0
2022-09-14T00:12:58.778Z,0
2022-09-14T00:14:02.017Z,0
2022-09-14T00:15:36.918Z,0
2022-09-14T00:16:40.221Z,0
2022-09-14T00:17:43.120Z,0
2022-09-14T00:19:17.877Z,0
2022-09-14T00:20:20.679Z,0
2022-09-14T00:21:23.379Z,0
2022-09-14T00:22:58.109Z,0
2022-09-14T00:24:00.939Z,0
2022-09-14T00:25:03.959Z,0
2022-09-14T00:26:38.883Z,0
2022-09-14T00:27:41.852Z,0
2022-09-14T00:28:45.017Z,0
2022-09-14T00:30:19.850Z,0
2022-09-14T00:31:23.016Z,0
2022-09-14T00:32:26.580Z,0
2022-09-14T00:34:01.582Z,0
2022-09-14T00:35:04.548Z,0
2022-09-14T00:36:07.624Z,0
2022-09-14T00:37:42.463Z,0
2022-09-14T00:38:45.554Z,0
2022-09-14T00:39:48.705Z,0
2022-09-14T00:41:23.879Z,0
2022-09-14T00:42:26.568Z,0
2022-09-14T00:43:29.705Z,0
2022-09-14T00:45:04.831Z,0
2022-09-14T00:46:08.645Z,0
2022-09-14T00:47:11.481Z,0
2022-09-14T00:48:46.154Z,0
2022-09-14T00:49:48.994Z,0
2022-09-14T00:50:51.698Z,0
2022-09-14T00:52:26.551Z,0
2022-09-14T00:53:29.413Z,0
2022-09-14T00:54:32.480Z,0
2022-09-14T00:56:07.362Z,0
2022-09-14T00:57:10.442Z,0
2022-09-14T00:58:13.516Z,0
2022-09-14T00:59:48.299Z,0
2022-09-14T01:00:39.755Z,0
2022-09-14T01:01:43.413Z,0
2022-09-14T01:02:46.939Z,0
2022-09-14T01:04:21.722Z,0
2022-09-14T01:05:24.844Z,0
2022-09-14T01:06:27.668Z,0
2022-09-14T01:08:02.671Z,0
2022-09-14T01:09:05.660Z,0
2022-09-14T01:10:08.617Z,0
2022-09-14T01:11:43.750Z,0
2022-09-14T01:12:46.749Z,0
2022-09-14T01:13:49.580Z,0
2022-09-14T01:15:24.263Z,0
2022-09-14T01:16:27.961Z,0
2022-09-14T01:17:30.844Z,0
2022-09-14T01:19:05.694Z,0
2022-09-14T01:20:08.886Z,0
2022-09-14T01:21:11.875Z,0
2022-09-14T01:22:46.630Z,0
2022-09-14T01:23:49.557Z,0
2022-09-14T01:24:52.715Z,0
2022-09-14T01:26:27.581Z,0
2022-09-14T01:27:30.515Z,0
2022-09-14T01:28:33.318Z,0
2022-09-14T01:30:08.028Z,0
2022-09-14T01:31:11.170Z,0
2022-09-14T01:32:14.675Z,0
2022-09-14T01:33:49.913Z,0
2022-09-14T01:34:52.813Z,0
2022-09-14T01:35:55.865Z,0
2022-09-14T01:37:30.366Z,0
2022-09-14T01:38:33.287Z,0
2022-09-14T01:39:36.334Z,0
2022-09-14T01:41:11.494Z,0
2022-09-14T01:42:14.401Z,0
2022-09-14T01:43:17.336Z,0
2022-09-14T01:44:52.536Z,0
2022-09-14T01:45:56.021Z,0
2022-09-14T01:46:59.047Z,0
2022-09-14T01:48:33.739Z,0
2022-09-14T01:49:36.738Z,0
2022-09-14T01:50:39.517Z,0
2022-09-14T01:52:14.265Z,0
2022-09-14T01:53:17.147Z,0
2022-09-14T01:54:20.207Z,0
2022-09-14T01:55:55.039Z,0
2022-09-14T01:56:58.061Z,0
2022-09-14T01:58:00.940Z,0
2022-09-14T01:59:35.388Z,0
2022-09-14T02:00:40.747Z,0
2022-09-14T02:01:48.497Z,0
2022-09-14T02:02:54.786Z,0
2022-09-14T02:04:30.199Z,0
2022-09-14T02:05:32.996Z,0
2022-09-14T02:06:36.089Z,0
2022-09-14T02:08:10.863Z,0
2022-09-14T02:09:13.974Z,0
2022-09-14T02:10:16.865Z,0
2022-09-14T02:11:51.539Z,0
2022-09-14T02:12:54.441Z,0
2022-09-14T02:13:57.315Z,0
2022-09-14T02:15:32.018Z,0
2022-09-14T02:16:35.630Z,0
2022-09-14T02:17:38.685Z,0
2022-09-14T02:19:13.587Z,0
2022-09-14T02:20:16.574Z,0
2022-09-14T02:21:19.493Z,0
2022-09-14T02:22:54.182Z,0
2022-09-14T02:23:57.094Z,0
2022-09-14T02:25:00.045Z,0
2022-09-14T02:26:35.124Z,0
2022-09-14T02:27:37.761Z,0
2022-09-14T02:28:40.979Z,0
2022-09-14T02:30:15.732Z,0
2022-09-14T02:31:19.000Z,0
2022-09-14T02:32:22.141Z,0
2022-09-14T02:33:56.958Z,0
2022-09-14T02:34:59.985Z,0
2022-09-14T02:36:02.802Z,0
2022-09-14T02:37:37.729Z,0
2022-09-14T02:38:40.884Z,0
2022-09-14T02:39:43.972Z,0
2022-09-14T02:41:19.040Z,0
2022-09-14T02:42:21.868Z,0
2022-09-14T02:43:24.677Z,0
2022-09-14T02:44:59.473Z,0
2022-09-14T02:46:02.489Z,0
2022-09-14T02:47:06.169Z,0
2022-09-14T02:48:41.043Z,0
2022-09-14T02:49:43.917Z,0
2022-09-14T02:50:47.086Z,0
2022-09-14T02:52:22.088Z,0
2022-09-14T02:53:25.021Z,0
2022-09-14T02:54:28.040Z,0
2022-09-14T02:56:02.698Z,0
2022-09-14T02:57:05.620Z,0
2022-09-14T02:58:08.530Z,0
2022-09-14T02:59:43.375Z,0
2022-09-14T03:00:40.523Z,0
2022-09-14T03:01:44.151Z,0
2022-09-14T03:02:47.315Z,0
2022-09-14T03:04:22.219Z,0
2022-09-14T03:05:25.221Z,0
2022-09-14T03:06:28.266Z,0
2022-09-14T03:08:03.358Z,0
2022-09-14T03:09:06.623Z,0
2022-09-14T03:10:09.407Z,0
2022-09-14T03:11:44.045Z,0
2022-09-14T03:12:47.345Z,0
2022-09-14T03:13:50.463Z,0
2022-09-14T03:15:25.213Z,0
2022-09-14T03:16:28.635Z,0
2022-09-14T03:17:31.563Z,0
2022-09-14T03:19:06.650Z,0
2022-09-14T03:20:09.553Z,0
2022-09-14T03:21:12.658Z,0
2022-09-14T03:22:47.495Z,0
2022-09-14T03:23:50.497Z,0
2022-09-14T03:24:53.336Z,0
2022-09-14T03:26:28.195Z,0
2022-09-14T03:27:31.229Z,0
2022-09-14T03:28:34.119Z,0
2022-09-14T03:30:08.839Z,0
2022-09-14T03:31:12.174Z,0
2022-09-14T03:32:15.454Z,0
2022-09-14T03:33:50.298Z,0
2022-09-14T03:34:53.361Z,0
2022-09-14T03:35:56.171Z,0
2022-09-14T03:37:31.011Z,0
2022-09-14T03:38:34.228Z,0
2022-09-14T03:39:37.006Z,0
2022-09-14T03:41:12.210Z,0
2022-09-14T03:42:15.313Z,0
2022-09-14T03:43:18.249Z,0
2022-09-14T03:44:53.452Z,0
2022-09-14T03:45:56.551Z,0
2022-09-14T03:47:00.077Z,0
2022-09-14T03:48:34.995Z,0
2022-09-14T03:49:37.762Z,0
2022-09-14T03:50:40.670Z,0
2022-09-14T03:52:22.178Z,0
2022-09-14T03:53:25.065Z,0
2022-09-14T03:54:28.050Z,0
2022-09-14T03:56:02.956Z,0
2022-09-14T03:57:05.977Z,0
2022-09-14T03:58:08.928Z,0
2022-09-14T03:59:49.261Z,0
2022-09-14T04:00:40.702Z,0
2022-09-14T04:01:44.641Z,0
2022-09-14T04:02:48.222Z,0
2022-09-14T04:04:23.140Z,0
2022-09-14T04:06:09.686Z,0
2022-09-14T04:07:12.717Z,0
2022-09-14T04:08:15.802Z,0
2022-09-14T04:09:51.052Z,0
2022-09-14T04:10:54.014Z,0
2022-09-14T04:11:56.949Z,0
2022-09-14T04:13:31.937Z,0
2022-09-14T04:14:35.137Z,0
2022-09-14T04:15:38.298Z,0
2022-09-14T04:17:13.351Z,0
2022-09-14T04:18:16.379Z,0
2022-09-14T04:19:19.276Z,0
2022-09-14T04:20:54.429Z,0
2022-09-14T04:21:57.352Z,0
2022-09-14T04:23:00.370Z,0
2022-09-14T04:24:48.931Z,0
2022-09-14T04:25:51.938Z,0
2022-09-14T04:26:55.953Z,0
2022-09-14T04:28:48.455Z,0
2022-09-14T04:29:51.269Z,0
2022-09-14T04:30:54.032Z,0
2022-09-14T04:32:33.634Z,0
2022-09-14T04:33:37.602Z,0
2022-09-14T04:34:40.604Z,0
2022-09-14T04:36:15.358Z,0
2022-09-14T04:37:18.243Z,0
2022-09-14T04:38:21.135Z,0
2022-09-14T04:39:56.033Z,0
2022-09-14T04:40:59.169Z,0
2022-09-14T04:42:01.975Z,0
2022-09-14T04:43:36.914Z,0
2022-09-14T04:44:39.859Z,0
2022-09-14T04:45:42.743Z,0
2022-09-14T04:47:18.520Z,0
2022-09-14T04:48:21.447Z,0
2022-09-14T04:49:24.821Z,0
2022-09-14T04:50:59.894Z,0
2022-09-14T04:52:02.982Z,0
2022-09-14T04:53:05.925Z,0
2022-09-14T04:54:40.729Z,0
2022-09-14T04:55:43.635Z,0
2022-09-14T04:56:46.593Z,0
2022-09-14T04:58:21.436Z,0
2022-09-14T04:59:24.357Z,0
2022-09-14T05:00:40.350Z,0
2022-09-14T05:01:43.745Z,0
2022-09-14T05:02:47.642Z,0
2022-09-14T05:04:23.072Z,0
2022-09-14T05:05:26.172Z,0
2022-09-14T05:06:29.004Z,0
2022-09-14T05:08:03.828Z,0
2022-09-14T05:09:06.684Z,0
2022-09-14T05:10:09.855Z,0
2022-09-14T05:11:45.085Z,0
2022-09-14T05:12:47.930Z,0
2022-09-14T05:13:55.982Z,0
2022-09-14T05:15:30.846Z,0
2022-09-14T05:16:34.924Z,0
2022-09-14T05:17:37.852Z,0
2022-09-14T05:19:12.922Z,0
2022-09-14T05:20:15.797Z,0
2022-09-14T05:21:24.986Z,0
2022-09-14T05:22:59.873Z,0
2022-09-14T05:24:03.022Z,0
2022-09-14T05:25:06.140Z,0
2022-09-14T05:26:41.060Z,0
2022-09-14T05:27:43.980Z,0
2022-09-14T05:28:47.256Z,0
2022-09-14T05:30:22.177Z,0
2022-09-14T05:31:25.556Z,0
2022-09-14T05:32:28.638Z,0
2022-09-14T05:34:06.985Z,0
2022-09-14T05:35:09.977Z,0
2022-09-14T05:36:13.011Z,0
2022-09-14T05:37:47.712Z,0
2022-09-14T05:38:51.187Z,0
2022-09-14T05:39:54.524Z,0
2022-09-14T05:41:29.806Z,0
2022-09-14T05:42:32.666Z,0
2022-09-14T05:43:35.570Z,0
2022-09-14T05:45:10.243Z,0
2022-09-14T05:46:13.994Z,0
2022-09-14T05:47:17.141Z,0
2022-09-14T05:48:53.605Z,0
2022-09-14T05:49:56.454Z,0
2022-09-14T05:50:59.444Z,0
2022-09-14T05:52:34.112Z,0
2022-09-14T05:53:37.338Z,0
2022-09-14T05:54:40.393Z,0
2022-09-14T05:56:15.141Z,0
2022-09-14T05:57:18.043Z,0
2022-09-14T05:58:20.993Z,0
2022-09-14T05:59:55.972Z,0
2022-09-14T06:00:41.067Z,0
2022-09-14T06:01:44.922Z,0
2022-09-14T06:02:48.209Z,0.435
2022-09-14T06:04:23.059Z,0
2022-09-14T06:05:26.758Z,0
2022-09-14T06:06:29.717Z,0
2022-09-14T06:08:31.634Z,0.435
2022-09-14T06:09:38.947Z,0.435
2022-09-14T06:10:42.210Z,0.435
2022-09-14T06:12:16.940Z,0.435
2022-09-14T06:13:23.553Z,0.435
2022-09-14T06:14:26.410Z,0.435
2022-09-14T06:16:01.277Z,0.435
2022-09-14T06:17:04.325Z,0.435
2022-09-14T06:18:07.361Z,0.435
2022-09-14T06:19:42.029Z,0.435
2022-09-14T06:20:45.101Z,0.435
2022-09-14T06:21:48.031Z,0.435
2022-09-14T06:23:23.102Z,0.435
2022-09-14T06:24:25.881Z,0.435
2022-09-14T06:25:28.684Z,0.435
2022-09-14T06:27:03.560Z,0.435
2022-09-14T06:28:06.275Z,0.435
2022-09-14T06:29:09.025Z,0.435
2022-09-14T06:30:44.016Z,0.435
2022-09-14T06:31:46.864Z,0.435
2022-09-14T06:32:49.809Z,0.435
2022-09-14T06:34:24.562Z,0.435
2022-09-14T06:35:33.035Z,0.435
2022-09-14T06:36:35.712Z,0.435
2022-09-14T06:38:10.424Z,0.435
2022-09-14T06:39:13.596Z,0.585
2022-09-14T06:40:16.863Z,0.435
2022-09-14T06:41:51.896Z,0.435
2022-09-14T06:42:54.844Z,0.585
2022-09-14T06:43:57.901Z,0.435
2022-09-14T06:45:32.955Z,0.585
2022-09-14T06:46:35.734Z,0.435
2022-09-14T06:47:38.488Z,0.435
2022-09-14T06:49:13.166Z,0.435
2022-09-14T06:50:16.111Z,0.435
2022-09-14T06:51:19.047Z,0.585
2022-09-14T06:52:56.483Z,0.435
2022-09-14T06:53:59.638Z,0.435
2022-09-14T06:55:02.570Z,0.585
2022-09-14T06:56:37.310Z,0.585
2022-09-14T06:57:43.033Z,0.585
2022-09-14T06:58:46.063Z,0.585
2022-09-14T07:00:40.465Z,0.585
2022-09-14T07:01:43.380Z,0.585
2022-09-14T07:02:46.950Z,0.585
2022-09-14T07:04:22.198Z,0.585
2022-09-14T07:05:25.218Z,0.585
2022-09-14T07:06:28.162Z,0.735
2022-09-14T07:08:03.142Z,0.885
2022-09-14T07:09:06.402Z,0.885
2022-09-14T07:10:09.414Z,1.02
2022-09-14T07:11:44.361Z,1.02
2022-09-14T07:12:47.347Z,1.02
2022-09-14T07:13:50.148Z,1.17
2022-09-14T07:15:25.014Z,1.17
2022-09-14T07:16:27.973Z,1.17
2022-09-14T07:17:31.028Z,1.17
2022-09-14T07:19:05.736Z,1.17
2022-09-14T07:20:08.536Z,1.17
2022-09-14T07:21:16.688Z,1.02
2022-09-14T07:22:51.391Z,1.02
2022-09-14T07:23:54.166Z,1.02
2022-09-14T07:24:57.277Z,1.17
2022-09-14T07:26:32.343Z,1.17
2022-09-14T07:27:35.161Z,1.32
2022-09-14T07:28:38.875Z,1.32
2022-09-14T07:30:13.953Z,1.32
2022-09-14T07:31:21.879Z,1.32
2022-09-14T07:32:24.834Z,1.32
2022-09-14T07:33:59.988Z,1.32
2022-09-14T07:35:03.117Z,1.17
2022-09-14T07:36:06.262Z,1.02
2022-09-14T07:37:45.684Z,1.02
2022-09-14T07:39:16.889Z,0.585
2022-09-14T07:40:20.460Z,0.585
2022-09-14T07:41:55.215Z,0.585
2022-09-14T07:43:03.281Z,0.585
2022-09-14T07:44:06.366Z,0.735
2022-09-14T07:45:41.545Z,0.735
2022-09-14T07:46:45.120Z,0.885
2022-09-14T07:47:48.202Z,1.02
2022-09-14T07:49:23.061Z,0.885
2022-09-14T07:50:25.992Z,1.02
2022-09-14T07:51:29.137Z,1.02
2022-09-14T07:53:06.871Z,1.02
2022-09-14T07:54:09.795Z,1.17
2022-09-14T07:55:12.568Z,1.17
2022-09-14T07:56:47.544Z,1.17
2022-09-14T07:58:20.574Z,1.32
2022-09-14T07:59:58.858Z,1.47
2022-09-14T08:00:40.088Z,1.32
2022-09-14T08:01:43.913Z,1.47
2022-09-14T08:02:47.389Z,1.47
2022-09-14T08:04:27.856Z,1.47
2022-09-14T08:05:30.932Z,1.755
2022-09-14T08:06:33.767Z,1.755
2022-09-14T08:08:08.476Z,1.755
2022-09-14T08:09:11.678Z,1.47
2022-09-14T08:10:14.741Z,1.32
2022-09-14T08:11:49.710Z,1.32
2022-09-14T08:12:52.513Z,1.17
2022-09-14T08:13:55.594Z,1.02
2022-09-14T08:15:34.312Z,1.02
2022-09-14T08:16:37.765Z,1.02
2022-09-14T08:17:40.878Z,1.02
2022-09-14T08:19:15.872Z,1.02
2022-09-14T08:20:18.799Z,1.17
2022-09-14T08:21:21.748Z,1.17
2022-09-14T08:23:01.454Z,1.32
2022-09-14T08:24:04.468Z,1.32
2022-09-14T08:25:07.551Z,1.32
2022-09-14T08:26:42.330Z,1.32
2022-09-14T08:27:45.769Z,1.32
2022-09-14T08:28:48.847Z,1.32
2022-09-14T08:30:23.725Z,1.32
2022-09-14T08:31:27.031Z,1.17
2022-09-14T08:32:30.319Z,1.17
2022-09-14T08:34:10.272Z,1.17
2022-09-14T08:35:13.035Z,1.17
2022-09-14T08:36:26.260Z,1.32
2022-09-14T08:38:01.028Z,1.32
2022-09-14T08:39:04.079Z,1.47
2022-09-14T08:40:13.697Z,1.47
2022-09-14T08:41:48.614Z,1.47
2022-09-14T08:42:51.602Z,1.47
2022-09-14T08:43:54.791Z,1.47
2022-09-14T08:45:32.585Z,1.47
2022-09-14T08:46:35.580Z,1.755
2022-09-14T08:47:38.529Z,1.755
2022-09-14T08:49:13.586Z,1.47
2022-09-14T08:50:16.417Z,1.755
2022-09-14T08:51:19.357Z,1.755
2022-09-14T08:52:54.214Z,1.47
2022-09-14T08:53:57.658Z,1.755
2022-09-14T08:55:00.673Z,1.47
2022-09-14T08:56:35.522Z,1.47
2022-09-14T08:57:38.617Z,1.32
2022-09-14T08:58:50.854Z,1.32
2022-09-14T09:00:40.938Z,1.32
2022-09-14T09:01:44.124Z,1.32
2022-09-14T09:02:47.051Z,1.32
2022-09-14T09:04:22.369Z,1.32
2022-09-14T09:05:25.600Z,1.32
2022-09-14T09:06:32.930Z,1.32
2022-09-14T09:08:07.777Z,1.47
2022-09-14T09:09:11.110Z,1.47
2022-09-14T09:10:14.011Z,1.47
2022-09-14T09:11:48.587Z,1.755
2022-09-14T09:12:51.413Z,1.755
2022-09-14T09:13:54.323Z,1.755
2022-09-14T09:15:32.973Z,1.755
2022-09-14T09:16:36.451Z,1.755
2022-09-14T09:17:39.366Z,1.755
2022-09-14T09:19:14.209Z,1.755
2022-09-14T09:20:17.255Z,1.755
2022-09-14T09:21:20.168Z,1.755
2022-09-14T09:22:55.167Z,1.755
2022-09-14T09:23:58.419Z,1.905
2022-09-14T09:25:05.425Z,1.905
2022-09-14T09:26:40.618Z,1.905
2022-09-14T09:27:43.845Z,1.905
2022-09-14T09:28:46.751Z,1.905
2022-09-14T09:30:21.743Z,1.905
2022-09-14T09:31:31.467Z,1.905
2022-09-14T09:32:34.757Z,1.905
2022-09-14T09:34:09.758Z,1.755
2022-09-14T09:35:12.997Z,1.755
2022-09-14T09:36:16.126Z,1.47
2022-09-14T09:37:50.890Z,1.47
2022-09-14T09:38:54.094Z,1.47
2022-09-14T09:39:57.306Z,1.47
2022-09-14T09:41:32.787Z,1.47
2022-09-14T09:42:35.589Z,1.47
2022-09-14T09:44:06.740Z,1.47
2022-09-14T09:45:41.615Z,1.755
2022-09-14T09:46:45.114Z,1.755
2022-09-14T09:47:48.114Z,1.755
2022-09-14T09:49:23.082Z,1.755
2022-09-14T09:50:26.468Z,1.755
2022-09-14T09:51:35.348Z,1.755
2022-09-14T09:53:16.159Z,1.755
2022-09-14T09:54:19.134Z,1.47
2022-09-14T09:55:22.242Z,1.47
2022-09-14T09:56:57.184Z,1.47
2022-09-14T09:57:59.802Z,1.47
2022-09-14T09:59:02.801Z,1.47
2022-09-14T10:00:40.694Z,1.47
2022-09-14T10:01:44.447Z,1.47
2022-09-14T10:02:47.915Z,1.47
2022-09-14T10:04:22.941Z,1.47
2022-09-14T10:05:25.996Z,1.47
2022-09-14T10:06:28.914Z,1.47
2022-09-14T10:08:06.905Z,1.755
2022-09-14T10:09:12.613Z,1.47
2022-09-14T10:10:15.407Z,1.755
2022-09-14T10:11:50.110Z,1.755
2022-09-14T10:12:53.153Z,1.905
2022-09-14T10:14:01.291Z,1.755
2022-09-14T10:15:36.085Z,1.755
2022-09-14T10:16:39.678Z,1.755
2022-09-14T10:17:42.746Z,1.905
2022-09-14T10:19:17.911Z,1.905
2022-09-14T10:20:20.816Z,1.905
2022-09-14T10:21:23.855Z,1.905
2022-09-14T10:22:58.822Z,2.055
2022-09-14T10:24:02.029Z,2.055
2022-09-14T10:25:05.198Z,2.055
2022-09-14T10:26:40.115Z,2.19
2022-09-14T10:27:49.164Z,2.34
2022-09-14T10:28:52.094Z,2.34
2022-09-14T10:30:26.937Z,2.34
2022-09-14T10:31:30.601Z,2.34
2022-09-14T10:32:33.462Z,2.49
2022-09-14T10:34:08.465Z,2.49
2022-09-14T10:35:11.486Z,2.49
2022-09-14T10:36:14.505Z,2.49
2022-09-14T10:37:49.352Z,2.49
2022-09-14T10:38:52.623Z,2.34
2022-09-14T10:39:55.949Z,2.34
2022-09-14T10:41:31.805Z,2.49
2022-09-14T10:42:34.822Z,2.34
2022-09-14T10:43:37.809Z,2.19
2022-09-14T10:45:12.974Z,2.19
2022-09-14T10:46:16.366Z,2.19
2022-09-14T10:47:25.098Z,2.19
2022-09-14T10:49:00.657Z,2.055
2022-09-14T10:50:03.625Z,2.055
2022-09-14T10:51:06.560Z,2.19
2022-09-14T10:52:41.487Z,2.19
2022-09-14T10:53:44.137Z,2.19
2022-09-14T10:54:47.242Z,2.19
2022-09-14T10:56:22.342Z,2.34
2022-09-14T10:57:25.488Z,2.34
2022-09-14T10:58:36.105Z,2.34
2022-09-14T11:00:40.041Z,2.49
2022-09-14T11:01:43.962Z,2.49
2022-09-14T11:02:48.227Z,2.34
2022-09-14T11:04:23.359Z,2.34
2022-09-14T11:05:26.330Z,2.34
2022-09-14T11:06:29.189Z,2.34
2022-09-14T11:08:04.380Z,2.19
2022-09-14T11:09:07.373Z,2.19
2022-09-14T11:10:10.418Z,2.19
2022-09-14T11:11:45.850Z,2.19
2022-09-14T11:12:49.008Z,2.19
2022-09-14T11:13:52.099Z,2.19
2022-09-14T11:15:26.901Z,2.34
2022-09-14T11:16:30.526Z,2.34
2022-09-14T11:17:33.553Z,2.34
2022-09-14T11:19:08.571Z,2.19
2022-09-14T11:20:11.552Z,2.19
2022-09-14T11:21:14.583Z,2.19
2022-09-14T11:22:49.331Z,2.19
2022-09-14T11:23:52.526Z,2.055
2022-09-14T11:24:55.377Z,2.055
2022-09-14T11:26:30.337Z,1.905
2022-09-14T11:27:33.215Z,2.055
2022-09-14T11:28:36.027Z,2.055
2022-09-14T11:30:10.961Z,2.055
2022-09-14T11:31:14.698Z,2.055
2022-09-14T11:32:45.380Z,2.055
2022-09-14T11:34:20.231Z,2.19
2022-09-14T11:35:23.327Z,2.19
2022-09-14T11:36:26.306Z,2.19
2022-09-14T11:38:01.123Z,2.19
2022-09-14T11:39:06.837Z,2.34
2022-09-14T11:40:10.697Z,2.19
2022-09-14T11:41:45.857Z,2.19
2022-09-14T11:42:48.739Z,2.19
2022-09-14T11:43:51.838Z,2.19
2022-09-14T11:45:26.781Z,2.34
2022-09-14T11:46:30.278Z,2.34
2022-09-14T11:47:33.364Z,2.19
2022-09-14T11:49:28.730Z,2.19
2022-09-14T11:50:31.752Z,2.19
2022-09-14T11:51:34.701Z,2.34
2022-09-14T11:53:09.392Z,2.19
2022-09-14T11:54:12.490Z,2.34
2022-09-14T11:55:15.868Z,2.34
2022-09-14T11:56:50.738Z,2.34
2022-09-14T11:57:53.669Z,2.34
2022-09-14T11:58:56.635Z,2.34
2022-09-14T12:00:40.828Z,2.34
2022-09-14T12:01:43.670Z,2.49
2022-09-14T12:02:47.210Z,2.49
2022-09-14T12:04:23.425Z,2.64
2022-09-14T12:05:26.389Z,2.49
2022-09-14T12:06:29.384Z,2.49
2022-09-14T12:08:04.588Z,2.49
2022-09-14T12:09:07.817Z,2.49
2022-09-14T12:10:10.693Z,2.49
2022-09-14T12:11:49.005Z,2.49
2022-09-14T12:12:52.017Z,2.49
2022-09-14T12:13:55.121Z,2.49
2022-09-14T12:15:30.088Z,2.34
2022-09-14T12:16:39.618Z,2.49
2022-09-14T12:18:07.484Z,2.34
2022-09-14T12:19:42.342Z,2.34
2022-09-14T12:20:48.616Z,2.34
2022-09-14T12:21:51.733Z,2.34
2022-09-14T12:23:26.866Z,2.34
2022-09-14T12:24:30.156Z,2.34
2022-09-14T12:25:33.157Z,2.19
2022-09-14T12:27:08.002Z,2.19
2022-09-14T12:28:10.897Z,2.34
2022-09-14T12:29:13.957Z,2.34
2022-09-14T12:30:52.475Z,2.34
2022-09-14T12:31:55.920Z,2.19
2022-09-14T12:32:58.808Z,2.19
2022-09-14T12:34:33.512Z,2.34
2022-09-14T12:35:36.498Z,2.34
2022-09-14T12:36:39.587Z,2.34
2022-09-14T12:38:20.651Z,2.34
2022-09-14T12:39:23.831Z,2.34
2022-09-14T12:40:27.210Z,2.34
2022-09-14T12:42:02.193Z,2.49
2022-09-14T12:43:05.134Z,2.34
2022-09-14T12:44:08.598Z,2.34
2022-09-14T12:45:43.755Z,2.34
2022-09-14T12:46:47.474Z,2.19
2022-09-14T12:47:50.429Z,2.34
2022-09-14T12:49:25.341Z,2.19
2022-09-14T12:50:28.571Z,2.19
2022-09-14T12:51:31.516Z,2.055
2022-09-14T12:53:06.612Z,2.19
2022-09-14T12:54:09.480Z,1.905
2022-09-14T12:55:18.479Z,1.905
2022-09-14T12:56:53.402Z,2.055
2022-09-14T12:57:56.320Z,2.055
2022-09-14T12:58:59.365Z,2.055
2022-09-14T13:00:45.380Z,2.055
2022-09-14T13:01:49.741Z,2.055
2022-09-14T13:02:54.074Z,2.19
2022-09-14T13:04:28.769Z,2.19
2022-09-14T13:05:31.722Z,2.19
2022-09-14T13:06:34.698Z,2.49
2022-09-14T13:08:09.564Z,2.925
2022-09-14T13:09:15.402Z,2.49
2022-09-14T13:10:18.358Z,2.79
2022-09-14T13:11:53.211Z,2.79
2022-09-14T13:12:56.349Z,3.075
2022-09-14T13:13:59.327Z,2.925
2022-09-14T13:15:34.511Z,2.925
2022-09-14T13:16:37.922Z,2.79
2022-09-14T13:17:41.221Z,3.075
2022-09-14T13:19:18.811Z,2.925
2022-09-14T13:20:22.011Z,2.79
2022-09-14T13:21:24.937Z,2.79
2022-09-14T13:22:59.909Z,2.79
2022-09-14T13:24:02.867Z,2.49
2022-09-14T13:25:05.717Z,2.49
2022-09-14T13:26:40.971Z,2.34
2022-09-14T13:27:43.910Z,2.19
2022-09-14T13:28:46.982Z,2.34
2022-09-14T13:30:22.055Z,2.19
2022-09-14T13:31:25.846Z,2.34
2022-09-14T13:32:32.397Z,2.19
2022-09-14T13:34:07.273Z,2.49
2022-09-14T13:35:10.286Z,2.49
2022-09-14T13:36:13.375Z,2.34
2022-09-14T13:37:53.965Z,3.075
2022-09-14T13:38:57.008Z,3.075
2022-09-14T13:40:00.167Z,2.925
2022-09-14T13:41:35.605Z,2.49
2022-09-14T13:42:38.869Z,2.34
2022-09-14T13:43:42.014Z,2.055
2022-09-14T13:45:17.040Z,2.64
2022-09-14T13:46:26.127Z,2.925
2022-09-14T13:47:29.283Z,2.925
2022-09-14T13:49:04.270Z,2.19
2022-09-14T13:50:07.408Z,2.34
2022-09-14T13:51:10.289Z,2.925
2022-09-14T13:53:16.008Z,2.055
2022-09-14T13:54:18.991Z,2.055
2022-09-14T13:55:21.897Z,2.055
2022-09-14T13:56:56.640Z,2.055
2022-09-14T13:57:59.845Z,2.34
2022-09-14T13:59:04.054Z,2.64
2022-09-14T14:00:40.116Z,2.49
2022-09-14T14:01:43.606Z,2.64
2022-09-14T14:02:51.776Z,2.79
2022-09-14T14:04:30.453Z,2.64
2022-09-14T14:05:33.770Z,3.075
2022-09-14T14:06:36.858Z,2.925
2022-09-14T14:08:11.591Z,2.19
2022-09-14T14:09:14.783Z,2.34
2022-09-14T14:10:20.496Z,2.49
2022-09-14T14:11:55.572Z,2.19
2022-09-14T14:13:02.136Z,2.34
2022-09-14T14:14:05.452Z,2.64
2022-09-14T14:15:45.588Z,3.075
2022-09-14T14:16:49.032Z,2.49
2022-09-14T14:17:52.358Z,2.925
2022-09-14T14:19:27.036Z,2.925
2022-09-14T14:20:30.198Z,3.075
2022-09-14T14:21:33.375Z,2.34
2022-09-14T14:23:07.918Z,2.19
2022-09-14T14:24:55.679Z,2.055
2022-09-14T14:26:14.542Z,2.055
2022-09-14T14:27:49.659Z,1.905
2022-09-14T14:28:52.667Z,2.055
2022-09-14T14:29:55.714Z,1.905
2022-09-14T14:31:37.051Z,1.905
2022-09-14T14:32:40.246Z,2.055
2022-09-14T14:33:43.265Z,2.055
2022-09-14T14:35:18.076Z,2.055
2022-09-14T14:36:21.179Z,1.905
2022-09-14T14:37:24.128Z,1.905
2022-09-14T14:38:59.338Z,1.905
2022-09-14T14:40:07.308Z,2.055
2022-09-14T14:41:11.412Z,2.34
2022-09-14T14:42:46.223Z,2.925
2022-09-14T14:43:49.363Z,3.51
2022-09-14T14:44:52.397Z,2.34
2022-09-14T14:46:27.686Z,2.055
2022-09-14T14:47:30.605Z,1.47
2022-09-14T14:48:33.491Z,1.47
2022-09-14T14:50:08.567Z,1.32
2022-09-14T14:51:11.696Z,1.32
2022-09-14T14:52:14.730Z,1.32
2022-09-14T14:53:49.915Z,1.47
2022-09-14T14:54:53.107Z,1.47
2022-09-14T14:55:56.363Z,1.47
2022-09-14T14:57:31.664Z,1.47
2022-09-14T14:58:36.446Z,1.47
2022-09-14T14:59:39.483Z,1.47
2022-09-14T15:00:40.823Z,1.755
2022-09-14T15:01:44.387Z,1.47
2022-09-14T15:02:47.443Z,1.905
2022-09-14T15:04:23.097Z,2.19
2022-09-14T15:05:26.174Z,1.905
2022-09-14T15:06:29.340Z,2.055
2022-09-14T15:08:06.145Z,1.47
2022-09-14T15:09:09.331Z,1.32
2022-09-14T15:10:12.552Z,1.32
2022-09-14T15:11:47.648Z,1.32
2022-09-14T15:12:50.540Z,1.32
2022-09-14T15:13:53.400Z,1.32
2022-09-14T15:15:32.467Z,1.47
2022-09-14T15:16:36.102Z,1.47
2022-09-14T15:17:38.974Z,1.47
2022-09-14T15:19:13.491Z,1.32
2022-09-14T15:20:16.712Z,1.17
2022-09-14T15:21:19.741Z,1.17
2022-09-14T15:22:54.504Z,1.32
2022-09-14T15:23:57.445Z,1.32
2022-09-14T15:25:00.549Z,1.32
2022-09-14T15:26:35.343Z,1.32
2022-09-14T15:27:38.432Z,1.32
2022-09-14T15:28:41.567Z,1.47
2022-09-14T15:30:16.586Z,1.32
2022-09-14T15:31:25.180Z,1.47
2022-09-14T15:32:28.987Z,1.32
2022-09-14T15:34:03.921Z,1.32
2022-09-14T15:35:06.960Z,1.32
2022-09-14T15:36:10.094Z,1.32
2022-09-14T15:37:45.058Z,1.32
2022-09-14T15:38:48.207Z,1.32
2022-09-14T15:39:55.790Z,1.32
2022-09-14T15:41:30.927Z,1.32
2022-09-14T15:42:34.041Z,1.47
2022-09-14T15:43:36.939Z,1.32
2022-09-14T15:45:12.037Z,1.47
2022-09-14T15:46:15.687Z,1.32
2022-09-14T15:47:18.693Z,1.32
2022-09-14T15:48:53.569Z,1.32
2022-09-14T15:49:56.483Z,1.17
2022-09-14T15:50:59.644Z,1.32
2022-09-14T15:52:34.546Z,1.32
2022-09-14T15:53:37.447Z,1.32
2022-09-14T15:54:40.334Z,1.17
2022-09-14T15:56:15.057Z,1.32
2022-09-14T15:57:17.893Z,1.17
2022-09-14T15:58:20.605Z,1.02
2022-09-14T16:00:01.586Z,1.02
2022-09-14T16:00:40.627Z,1.17
2022-09-14T16:01:44.490Z,1.02
2022-09-14T16:02:48.082Z,1.02
2022-09-14T16:04:28.314Z,1.02
2022-09-14T16:06:09.215Z,0.885
2022-09-14T16:07:12.148Z,1.02
2022-09-14T16:08:15.322Z,0.885
2022-09-14T16:09:50.709Z,0.885
2022-09-14T16:10:53.660Z,0.885
2022-09-14T16:12:01.433Z,0.885
2022-09-14T16:13:36.686Z,0.735
2022-09-14T16:14:39.755Z,0.735
2022-09-14T16:15:42.667Z,0.585
2022-09-14T16:17:18.130Z,0.585
2022-09-14T16:18:20.942Z,0.585
2022-09-14T16:19:23.909Z,0.585
2022-09-14T16:20:58.577Z,0.585
2022-09-14T16:22:05.078Z,0.585
2022-09-14T16:23:07.816Z,0.585
2022-09-14T16:24:42.711Z,0.435
2022-09-14T16:25:45.753Z,0.435
2022-09-14T16:26:48.825Z,0.435
2022-09-14T16:28:23.406Z,0.435
2022-09-14T16:29:26.387Z,0.435
2022-09-14T16:30:29.261Z,0.435
2022-09-14T16:32:04.747Z,0.435
2022-09-14T16:33:07.765Z,0.435
2022-09-14T16:34:10.730Z,0.435
2022-09-14T16:35:45.778Z,0.435
2022-09-14T16:36:48.649Z,0.435
2022-09-14T16:37:51.686Z,0.435
2022-09-14T16:39:26.421Z,0.435
2022-09-14T16:40:30.160Z,0.435
2022-09-14T16:41:33.338Z,0.435
2022-09-14T16:43:08.381Z,0.435
2022-09-14T16:44:11.367Z,0.435
2022-09-14T16:45:14.390Z,0.435
2022-09-14T16:46:49.553Z,0.435
2022-09-14T16:47:52.787Z,0.435
2022-09-14T16:48:56.147Z,0.435
2022-09-14T16:50:36.164Z,0.435
2022-09-14T16:51:39.141Z,0.435
2022-09-14T16:52:42.123Z,0.435
2022-09-14T16:54:16.699Z,0.435
2022-09-14T16:55:24.144Z,0.435
2022-09-14T16:56:27.222Z,0.435
2022-09-14T16:58:02.109Z,0
2022-09-14T16:59:05.230Z,0